sensor_id;sensor_type;location;lat;lon;timestamp;temperature;humidity
19252;DHT22;9760;50.944;5.304;2024-02-28T00:02:18;2.50;99.90
19252;DHT22;9760;50.944;5.304;2024-02-28T00:04:44;2.50;99.90
19252;DHT22;9760;50.944;5.304;2024-02-28T00:07:09;2.40;99.90
19252;DHT22;9760;50.944;5.304;2024-02-28T00:09:35;2.30;99.90
19252;DHT22;9760;50.944;5.304;2024-02-28T00:12:01;2.40;99.90
19252;DHT22;9760;50.944;5.304;2024-02-28T00:14:26;2.40;99.90
19252;DHT22;9760;50.944;5.304;2024-02-28T00:16:52;2.40;99.90
19252;DHT22;9760;50.944;5.304;2024-02-28T00:19:17;2.40;99.90
19252;DHT22;9760;50.944;5.304;2024-02-28T00:21:45;2.50;99.90
19252;DHT22;9760;50.944;5.304;2024-02-28T00:24:11;2.40;99.90
19252;DHT22;9760;50.944;5.304;2024-02-28T00:26:41;2.30;99.90
19252;DHT22;9760;50.944;5.304;2024-02-28T00:29:07;2.30;99.90
19252;DHT22;9760;50.944;5.304;2024-02-28T00:31:33;2.30;99.90
19252;DHT22;9760;50.944;5.304;2024-02-28T00:33:59;2.30;99.90
19252;DHT22;9760;50.944;5.304;2024-02-28T00:36:24;2.30;99.90
19252;DHT22;9760;50.944;5.304;2024-02-28T00:38:50;2.20;99.90
19252;DHT22;9760;50.944;5.304;2024-02-28T00:41:16;2.20;99.90
19252;DHT22;9760;50.944;5.304;2024-02-28T00:43:41;2.30;99.90
19252;DHT22;9760;50.944;5.304;2024-02-28T00:46:07;2.30;99.90
19252;DHT22;9760;50.944;5.304;2024-02-28T00:48:40;2.30;99.90
19252;DHT22;9760;50.944;5.304;2024-02-28T00:51:06;2.30;99.90
19252;DHT22;9760;50.944;5.304;2024-02-28T00:53:33;2.20;99.90
19252;DHT22;9760;50.944;5.304;2024-02-28T00:55:59;2.20;99.90
19252;DHT22;9760;50.944;5.304;2024-02-28T00:58:25;2.20;99.90
19252;DHT22;9760;50.944;5.304;2024-02-28T01:00:53;2.10;99.90
19252;DHT22;9760;50.944;5.304;2024-02-28T01:03:18;1.90;99.90
19252;DHT22;9760;50.944;5.304;2024-02-28T01:05:44;1.80;99.90
19252;DHT22;9760;50.944;5.304;2024-02-28T01:08:10;1.80;99.90
19252;DHT22;9760;50.944;5.304;2024-02-28T01:10:35;1.80;99.90
19252;DHT22;9760;50.944;5.304;2024-02-28T01:13:02;1.80;99.90
19252;DHT22;9760;50.944;5.304;2024-02-28T01:15:28;1.80;99.90
19252;DHT22;9760;50.944;5.304;2024-02-28T01:17:53;1.80;99.90
19252;DHT22;9760;50.944;5.304;2024-02-28T01:20:19;1.70;99.90
19252;DHT22;9760;50.944;5.304;2024-02-28T01:22:44;1.60;99.90
19252;DHT22;9760;50.944;5.304;2024-02-28T01:25:10;1.50;99.90
19252;DHT22;9760;50.944;5.304;2024-02-28T01:27:36;1.60;99.90
19252;DHT22;9760;50.944;5.304;2024-02-28T01:30:02;1.60;99.90
19252;DHT22;9760;50.944;5.304;2024-02-28T01:32:29;1.60;99.90
19252;DHT22;9760;50.944;5.304;2024-02-28T01:34:54;1.60;99.90
19252;DHT22;9760;50.944;5.304;2024-02-28T01:37:20;1.70;99.90
19252;DHT22;9760;50.944;5.304;2024-02-28T01:39:46;1.80;99.90
19252;DHT22;9760;50.944;5.304;2024-02-28T01:42:11;1.80;99.90
19252;DHT22;9760;50.944;5.304;2024-02-28T01:44:43;1.80;99.90
19252;DHT22;9760;50.944;5.304;2024-02-28T01:47:09;1.70;99.90
19252;DHT22;9760;50.944;5.304;2024-02-28T01:49:35;1.70;99.90
19252;DHT22;9760;50.944;5.304;2024-02-28T01:52:01;1.60;99.90
19252;DHT22;9760;50.944;5.304;2024-02-28T01:54:27;1.50;99.90
19252;DHT22;9760;50.944;5.304;2024-02-28T01:56:55;1.50;99.90
19252;DHT22;9760;50.944;5.304;2024-02-28T01:59:23;1.40;99.90
19252;DHT22;9760;50.944;5.304;2024-02-28T02:01:50;1.30;99.90
19252;DHT22;9760;50.944;5.304;2024-02-28T02:04:16;1.30;99.90
19252;DHT22;9760;50.944;5.304;2024-02-28T02:06:42;1.40;99.90
19252;DHT22;9760;50.944;5.304;2024-02-28T02:09:09;1.50;99.90
19252;DHT22;9760;50.944;5.304;2024-02-28T02:11:35;1.50;99.90
19252;DHT22;9760;50.944;5.304;2024-02-28T02:14:01;1.60;99.90
19252;DHT22;9760;50.944;5.304;2024-02-28T02:16:27;1.70;99.90
19252;DHT22;9760;50.944;5.304;2024-02-28T02:18:53;1.70;99.90
19252;DHT22;9760;50.944;5.304;2024-02-28T02:21:21;1.70;99.90
19252;DHT22;9760;50.944;5.304;2024-02-28T02:23:48;1.70;99.90
19252;DHT22;9760;50.944;5.304;2024-02-28T02:26:13;1.60;99.90
19252;DHT22;9760;50.944;5.304;2024-02-28T02:28:39;1.50;99.90
19252;DHT22;9760;50.944;5.304;2024-02-28T02:31:05;1.50;99.90
19252;DHT22;9760;50.944;5.304;2024-02-28T02:33:30;1.30;99.90
19252;DHT22;9760;50.944;5.304;2024-02-28T02:35:56;1.20;99.90
19252;DHT22;9760;50.944;5.304;2024-02-28T02:38:21;1.10;99.90
19252;DHT22;9760;50.944;5.304;2024-02-28T02:40:51;1.20;99.90
19252;DHT22;9760;50.944;5.304;2024-02-28T02:43:17;1.30;99.90
19252;DHT22;9760;50.944;5.304;2024-02-28T02:45:42;1.30;99.90
19252;DHT22;9760;50.944;5.304;2024-02-28T02:48:09;1.30;99.90
19252;DHT22;9760;50.944;5.304;2024-02-28T02:50:34;1.10;99.90
19252;DHT22;9760;50.944;5.304;2024-02-28T02:53:01;1.10;99.90
19252;DHT22;9760;50.944;5.304;2024-02-28T02:55:26;1.10;99.90
19252;DHT22;9760;50.944;5.304;2024-02-28T02:57:52;1.10;99.90
19252;DHT22;9760;50.944;5.304;2024-02-28T03:00:18;1.10;99.90
19252;DHT22;9760;50.944;5.304;2024-02-28T03:02:43;1.00;99.90
19252;DHT22;9760;50.944;5.304;2024-02-28T03:05:09;1.00;99.90
19252;DHT22;9760;50.944;5.304;2024-02-28T03:07:35;1.00;99.90
19252;DHT22;9760;50.944;5.304;2024-02-28T03:10:00;1.00;99.90
19252;DHT22;9760;50.944;5.304;2024-02-28T03:12:27;1.10;99.90
19252;DHT22;9760;50.944;5.304;2024-02-28T03:14:52;1.10;99.90
19252;DHT22;9760;50.944;5.304;2024-02-28T03:17:18;1.00;99.90
19252;DHT22;9760;50.944;5.304;2024-02-28T03:19:44;1.10;99.90
19252;DHT22;9760;50.944;5.304;2024-02-28T03:22:09;1.10;99.90
19252;DHT22;9760;50.944;5.304;2024-02-28T03:24:35;1.10;99.90
19252;DHT22;9760;50.944;5.304;2024-02-28T03:27:04;1.10;99.90
19252;DHT22;9760;50.944;5.304;2024-02-28T03:29:30;1.10;99.90
19252;DHT22;9760;50.944;5.304;2024-02-28T03:31:56;1.10;99.90
19252;DHT22;9760;50.944;5.304;2024-02-28T03:34:21;1.00;99.90
19252;DHT22;9760;50.944;5.304;2024-02-28T03:36:47;1.00;99.90
19252;DHT22;9760;50.944;5.304;2024-02-28T03:39:12;1.00;99.90
19252;DHT22;9760;50.944;5.304;2024-02-28T03:41:38;1.00;99.90
19252;DHT22;9760;50.944;5.304;2024-02-28T03:44:04;0.90;99.90
19252;DHT22;9760;50.944;5.304;2024-02-28T03:46:30;0.90;99.90
19252;DHT22;9760;50.944;5.304;2024-02-28T03:48:56;0.90;99.90
19252;DHT22;9760;50.944;5.304;2024-02-28T03:51:21;0.90;99.90
19252;DHT22;9760;50.944;5.304;2024-02-28T03:53:47;0.90;99.90
19252;DHT22;9760;50.944;5.304;2024-02-28T03:56:13;0.80;99.90
19252;DHT22;9760;50.944;5.304;2024-02-28T03:58:39;0.80;99.90
19252;DHT22;9760;50.944;5.304;2024-02-28T04:01:05;0.80;99.90
19252;DHT22;9760;50.944;5.304;2024-02-28T04:03:31;0.80;99.90
19252;DHT22;9760;50.944;5.304;2024-02-28T04:05:57;0.90;99.90
19252;DHT22;9760;50.944;5.304;2024-02-28T04:08:22;0.90;99.90
19252;DHT22;9760;50.944;5.304;2024-02-28T04:10:48;1.00;99.90
19252;DHT22;9760;50.944;5.304;2024-02-28T04:13:15;1.00;99.90
19252;DHT22;9760;50.944;5.304;2024-02-28T04:15:41;1.00;99.90
19252;DHT22;9760;50.944;5.304;2024-02-28T04:18:06;1.00;99.90
19252;DHT22;9760;50.944;5.304;2024-02-28T04:20:33;1.00;99.90
19252;DHT22;9760;50.944;5.304;2024-02-28T04:22:59;1.00;99.90
19252;DHT22;9760;50.944;5.304;2024-02-28T04:25:24;1.10;99.90
19252;DHT22;9760;50.944;5.304;2024-02-28T04:27:50;1.00;99.90
19252;DHT22;9760;50.944;5.304;2024-02-28T04:30:15;1.10;99.90
19252;DHT22;9760;50.944;5.304;2024-02-28T04:32:41;1.10;99.90
19252;DHT22;9760;50.944;5.304;2024-02-28T04:35:07;1.10;99.90
19252;DHT22;9760;50.944;5.304;2024-02-28T04:37:33;1.00;99.90
19252;DHT22;9760;50.944;5.304;2024-02-28T04:40:00;1.10;99.90
19252;DHT22;9760;50.944;5.304;2024-02-28T04:42:26;1.00;99.90
19252;DHT22;9760;50.944;5.304;2024-02-28T04:44:51;1.00;99.90
19252;DHT22;9760;50.944;5.304;2024-02-28T04:47:17;1.00;99.90
19252;DHT22;9760;50.944;5.304;2024-02-28T04:49:43;0.90;99.90
19252;DHT22;9760;50.944;5.304;2024-02-28T04:52:08;0.90;99.90
19252;DHT22;9760;50.944;5.304;2024-02-28T04:54:34;0.90;99.90
19252;DHT22;9760;50.944;5.304;2024-02-28T04:57:00;0.80;99.90
19252;DHT22;9760;50.944;5.304;2024-02-28T04:59:26;0.80;99.90
19252;DHT22;9760;50.944;5.304;2024-02-28T05:01:51;0.70;99.90
19252;DHT22;9760;50.944;5.304;2024-02-28T05:04:17;0.60;99.90
19252;DHT22;9760;50.944;5.304;2024-02-28T05:06:43;0.60;99.90
19252;DHT22;9760;50.944;5.304;2024-02-28T05:09:08;0.50;99.90
19252;DHT22;9760;50.944;5.304;2024-02-28T05:11:34;0.50;99.90
19252;DHT22;9760;50.944;5.304;2024-02-28T05:14:00;0.50;99.90
19252;DHT22;9760;50.944;5.304;2024-02-28T05:16:25;0.50;99.90
19252;DHT22;9760;50.944;5.304;2024-02-28T05:18:51;0.50;99.90
19252;DHT22;9760;50.944;5.304;2024-02-28T05:21:17;0.50;99.90
19252;DHT22;9760;50.944;5.304;2024-02-28T05:23:43;0.50;99.90
19252;DHT22;9760;50.944;5.304;2024-02-28T05:26:08;0.50;99.90
19252;DHT22;9760;50.944;5.304;2024-02-28T05:28:34;0.30;99.90
19252;DHT22;9760;50.944;5.304;2024-02-28T05:31:24;0.30;99.90
19252;DHT22;9760;50.944;5.304;2024-02-28T05:33:51;0.30;99.90
19252;DHT22;9760;50.944;5.304;2024-02-28T05:36:17;0.40;99.90
19252;DHT22;9760;50.944;5.304;2024-02-28T05:38:44;0.40;99.90
19252;DHT22;9760;50.944;5.304;2024-02-28T05:41:09;0.40;99.90
19252;DHT22;9760;50.944;5.304;2024-02-28T05:43:37;0.50;99.90
19252;DHT22;9760;50.944;5.304;2024-02-28T05:46:03;0.40;99.90
19252;DHT22;9760;50.944;5.304;2024-02-28T05:48:29;0.40;99.90
19252;DHT22;9760;50.944;5.304;2024-02-28T05:50:54;0.50;99.90
19252;DHT22;9760;50.944;5.304;2024-02-28T05:53:20;0.50;99.90
19252;DHT22;9760;50.944;5.304;2024-02-28T05:55:46;0.50;99.90
19252;DHT22;9760;50.944;5.304;2024-02-28T05:58:13;0.40;99.90
19252;DHT22;9760;50.944;5.304;2024-02-28T06:00:39;0.50;99.90
19252;DHT22;9760;50.944;5.304;2024-02-28T06:03:05;0.50;99.90
19252;DHT22;9760;50.944;5.304;2024-02-28T06:05:30;0.40;99.90
19252;DHT22;9760;50.944;5.304;2024-02-28T06:07:56;0.40;99.90
19252;DHT22;9760;50.944;5.304;2024-02-28T06:10:22;0.40;99.90
19252;DHT22;9760;50.944;5.304;2024-02-28T06:12:47;0.40;99.90
19252;DHT22;9760;50.944;5.304;2024-02-28T06:15:13;0.40;99.90
19252;DHT22;9760;50.944;5.304;2024-02-28T06:17:38;0.40;99.90
19252;DHT22;9760;50.944;5.304;2024-02-28T06:20:05;0.50;99.90
19252;DHT22;9760;50.944;5.304;2024-02-28T06:22:31;0.50;99.90
19252;DHT22;9760;50.944;5.304;2024-02-28T06:24:57;0.50;99.90
19252;DHT22;9760;50.944;5.304;2024-02-28T06:27:23;0.50;99.90
19252;DHT22;9760;50.944;5.304;2024-02-28T06:29:48;0.50;99.90
19252;DHT22;9760;50.944;5.304;2024-02-28T06:32:14;0.50;99.90
19252;DHT22;9760;50.944;5.304;2024-02-28T06:34:40;0.60;99.90
19252;DHT22;9760;50.944;5.304;2024-02-28T06:37:07;0.50;99.90
19252;DHT22;9760;50.944;5.304;2024-02-28T06:39:33;0.60;99.90
19252;DHT22;9760;50.944;5.304;2024-02-28T06:41:58;0.60;99.90
19252;DHT22;9760;50.944;5.304;2024-02-28T06:44:24;0.60;99.90
19252;DHT22;9760;50.944;5.304;2024-02-28T06:46:50;0.70;99.90
19252;DHT22;9760;50.944;5.304;2024-02-28T06:49:15;0.70;99.90
19252;DHT22;9760;50.944;5.304;2024-02-28T06:51:43;0.70;99.90
19252;DHT22;9760;50.944;5.304;2024-02-28T06:54:09;0.70;99.90
19252;DHT22;9760;50.944;5.304;2024-02-28T06:56:35;0.70;99.90
19252;DHT22;9760;50.944;5.304;2024-02-28T06:59:01;0.80;99.90
19252;DHT22;9760;50.944;5.304;2024-02-28T07:01:27;0.80;99.90
19252;DHT22;9760;50.944;5.304;2024-02-28T07:03:53;0.80;99.90
19252;DHT22;9760;50.944;5.304;2024-02-28T07:06:18;0.90;99.90
19252;DHT22;9760;50.944;5.304;2024-02-28T07:08:44;0.90;99.90
19252;DHT22;9760;50.944;5.304;2024-02-28T07:11:14;1.00;99.90
19252;DHT22;9760;50.944;5.304;2024-02-28T07:13:40;1.10;99.90
19252;DHT22;9760;50.944;5.304;2024-02-28T07:16:06;1.10;99.90
19252;DHT22;9760;50.944;5.304;2024-02-28T07:18:32;1.20;99.90
19252;DHT22;9760;50.944;5.304;2024-02-28T07:20:57;1.20;99.90
19252;DHT22;9760;50.944;5.304;2024-02-28T07:23:23;1.20;99.90
19252;DHT22;9760;50.944;5.304;2024-02-28T07:25:48;1.30;99.90
19252;DHT22;9760;50.944;5.304;2024-02-28T07:28:14;1.40;99.90
19252;DHT22;9760;50.944;5.304;2024-02-28T07:30:40;1.40;99.90
19252;DHT22;9760;50.944;5.304;2024-02-28T07:33:06;1.40;99.90
19252;DHT22;9760;50.944;5.304;2024-02-28T07:35:31;1.50;99.90
19252;DHT22;9760;50.944;5.304;2024-02-28T07:37:57;1.50;99.90
19252;DHT22;9760;50.944;5.304;2024-02-28T07:40:22;1.50;99.90
19252;DHT22;9760;50.944;5.304;2024-02-28T07:42:48;1.60;99.90
19252;DHT22;9760;50.944;5.304;2024-02-28T07:45:14;1.60;99.90
19252;DHT22;9760;50.944;5.304;2024-02-28T07:47:39;1.70;99.90
19252;DHT22;9760;50.944;5.304;2024-02-28T07:50:06;1.80;99.90
19252;DHT22;9760;50.944;5.304;2024-02-28T07:52:32;1.80;99.90
19252;DHT22;9760;50.944;5.304;2024-02-28T07:55:01;1.80;99.90
19252;DHT22;9760;50.944;5.304;2024-02-28T07:57:27;1.80;99.90
19252;DHT22;9760;50.944;5.304;2024-02-28T07:59:53;1.90;99.90
19252;DHT22;9760;50.944;5.304;2024-02-28T08:02:18;1.90;99.90
19252;DHT22;9760;50.944;5.304;2024-02-28T08:04:46;1.90;99.90
19252;DHT22;9760;50.944;5.304;2024-02-28T08:07:11;2.00;99.90
19252;DHT22;9760;50.944;5.304;2024-02-28T08:09:37;2.10;99.90
19252;DHT22;9760;50.944;5.304;2024-02-28T08:12:03;2.00;99.90
19252;DHT22;9760;50.944;5.304;2024-02-28T08:14:29;2.00;99.90
19252;DHT22;9760;50.944;5.304;2024-02-28T08:16:54;2.00;99.90
19252;DHT22;9760;50.944;5.304;2024-02-28T08:19:21;2.00;99.90
19252;DHT22;9760;50.944;5.304;2024-02-28T08:21:46;2.10;99.90
19252;DHT22;9760;50.944;5.304;2024-02-28T08:24:13;2.10;99.90
19252;DHT22;9760;50.944;5.304;2024-02-28T08:26:38;2.20;99.90
19252;DHT22;9760;50.944;5.304;2024-02-28T08:29:06;2.20;99.90
19252;DHT22;9760;50.944;5.304;2024-02-28T08:31:32;2.40;99.90
19252;DHT22;9760;50.944;5.304;2024-02-28T08:33:57;2.50;99.90
19252;DHT22;9760;50.944;5.304;2024-02-28T08:36:23;2.60;99.90
19252;DHT22;9760;50.944;5.304;2024-02-28T08:38:48;2.70;99.90
19252;DHT22;9760;50.944;5.304;2024-02-28T08:41:14;2.70;99.90
19252;DHT22;9760;50.944;5.304;2024-02-28T08:43:40;2.60;99.90
19252;DHT22;9760;50.944;5.304;2024-02-28T08:46:06;2.60;99.90
19252;DHT22;9760;50.944;5.304;2024-02-28T08:48:32;2.80;99.90
19252;DHT22;9760;50.944;5.304;2024-02-28T08:50:58;2.90;99.90
19252;DHT22;9760;50.944;5.304;2024-02-28T08:53:24;3.00;99.90
19252;DHT22;9760;50.944;5.304;2024-02-28T08:55:49;3.10;99.90
19252;DHT22;9760;50.944;5.304;2024-02-28T08:58:15;3.30;99.90
19252;DHT22;9760;50.944;5.304;2024-02-28T09:00:41;3.30;99.90
19252;DHT22;9760;50.944;5.304;2024-02-28T09:03:06;3.40;99.90
19252;DHT22;9760;50.944;5.304;2024-02-28T09:05:32;3.50;99.90
19252;DHT22;9760;50.944;5.304;2024-02-28T09:07:58;3.60;99.90
19252;DHT22;9760;50.944;5.304;2024-02-28T09:10:24;3.70;99.90
19252;DHT22;9760;50.944;5.304;2024-02-28T09:12:53;3.80;99.90
19252;DHT22;9760;50.944;5.304;2024-02-28T09:15:19;3.90;99.90
19252;DHT22;9760;50.944;5.304;2024-02-28T09:17:45;3.90;99.90
19252;DHT22;9760;50.944;5.304;2024-02-28T09:20:11;3.90;99.90
19252;DHT22;9760;50.944;5.304;2024-02-28T09:22:38;4.10;99.90
19252;DHT22;9760;50.944;5.304;2024-02-28T09:25:06;4.20;99.90
19252;DHT22;9760;50.944;5.304;2024-02-28T09:27:32;4.40;99.90
19252;DHT22;9760;50.944;5.304;2024-02-28T09:29:58;4.50;99.90
19252;DHT22;9760;50.944;5.304;2024-02-28T09:32:23;4.70;99.90
19252;DHT22;9760;50.944;5.304;2024-02-28T09:34:49;5.00;99.90
19252;DHT22;9760;50.944;5.304;2024-02-28T09:37:15;5.10;99.90
19252;DHT22;9760;50.944;5.304;2024-02-28T09:39:42;5.20;99.90
19252;DHT22;9760;50.944;5.304;2024-02-28T09:42:08;5.20;99.90
19252;DHT22;9760;50.944;5.304;2024-02-28T09:44:35;5.50;99.90
19252;DHT22;9760;50.944;5.304;2024-02-28T09:47:02;5.60;99.90
19252;DHT22;9760;50.944;5.304;2024-02-28T09:49:28;5.50;99.90
19252;DHT22;9760;50.944;5.304;2024-02-28T09:51:57;5.50;99.90
19252;DHT22;9760;50.944;5.304;2024-02-28T09:54:24;5.60;99.90
19252;DHT22;9760;50.944;5.304;2024-02-28T09:56:51;5.50;99.90
19252;DHT22;9760;50.944;5.304;2024-02-28T09:59:18;5.60;99.90
19252;DHT22;9760;50.944;5.304;2024-02-28T10:01:48;5.70;99.90
19252;DHT22;9760;50.944;5.304;2024-02-28T10:04:17;5.60;99.90
19252;DHT22;9760;50.944;5.304;2024-02-28T10:06:43;5.50;99.90
19252;DHT22;9760;50.944;5.304;2024-02-28T10:09:09;5.40;99.90
19252;DHT22;9760;50.944;5.304;2024-02-28T10:11:36;5.60;99.90
19252;DHT22;9760;50.944;5.304;2024-02-28T10:14:02;5.80;99.90
19252;DHT22;9760;50.944;5.304;2024-02-28T10:16:29;5.70;99.90
19252;DHT22;9760;50.944;5.304;2024-02-28T10:18:54;5.60;99.90
19252;DHT22;9760;50.944;5.304;2024-02-28T10:21:20;5.60;99.90
19252;DHT22;9760;50.944;5.304;2024-02-28T10:23:46;5.50;99.90
19252;DHT22;9760;50.944;5.304;2024-02-28T10:26:12;5.50;99.90
19252;DHT22;9760;50.944;5.304;2024-02-28T10:28:41;5.60;99.90
19252;DHT22;9760;50.944;5.304;2024-02-28T10:31:09;5.60;99.90
19252;DHT22;9760;50.944;5.304;2024-02-28T10:33:36;5.60;99.90
19252;DHT22;9760;50.944;5.304;2024-02-28T10:36:05;5.90;99.90
19252;DHT22;9760;50.944;5.304;2024-02-28T10:38:32;5.80;99.90
19252;DHT22;9760;50.944;5.304;2024-02-28T10:41:03;5.90;99.90
19252;DHT22;9760;50.944;5.304;2024-02-28T10:43:29;5.80;99.90
19252;DHT22;9760;50.944;5.304;2024-02-28T10:45:59;5.80;99.90
19252;DHT22;9760;50.944;5.304;2024-02-28T10:48:28;5.90;99.90
19252;DHT22;9760;50.944;5.304;2024-02-28T10:50:53;6.00;99.90
19252;DHT22;9760;50.944;5.304;2024-02-28T10:53:37;6.20;99.90
19252;DHT22;9760;50.944;5.304;2024-02-28T10:56:10;6.30;99.90
19252;DHT22;9760;50.944;5.304;2024-02-28T10:58:38;6.30;99.90
19252;DHT22;9760;50.944;5.304;2024-02-28T11:01:07;6.40;99.90
19252;DHT22;9760;50.944;5.304;2024-02-28T11:03:34;6.50;99.90
19252;DHT22;9760;50.944;5.304;2024-02-28T11:05:59;6.60;99.90
19252;DHT22;9760;50.944;5.304;2024-02-28T11:08:27;6.70;99.90
19252;DHT22;9760;50.944;5.304;2024-02-28T11:11:03;6.70;99.90
19252;DHT22;9760;50.944;5.304;2024-02-28T11:13:29;6.70;99.90
19252;DHT22;9760;50.944;5.304;2024-02-28T11:16:07;6.80;99.90
19252;DHT22;9760;50.944;5.304;2024-02-28T11:18:33;6.80;99.90
19252;DHT22;9760;50.944;5.304;2024-02-28T11:20:59;7.00;99.90
19252;DHT22;9760;50.944;5.304;2024-02-28T11:23:24;7.00;99.90
19252;DHT22;9760;50.944;5.304;2024-02-28T11:25:51;7.20;99.90
19252;DHT22;9760;50.944;5.304;2024-02-28T11:28:17;7.20;99.90
19252;DHT22;9760;50.944;5.304;2024-02-28T11:30:47;7.40;99.90
19252;DHT22;9760;50.944;5.304;2024-02-28T11:33:13;7.40;99.90
19252;DHT22;9760;50.944;5.304;2024-02-28T11:35:39;7.50;99.90
19252;DHT22;9760;50.944;5.304;2024-02-28T11:38:06;7.60;99.90
19252;DHT22;9760;50.944;5.304;2024-02-28T11:40:32;7.70;99.90
19252;DHT22;9760;50.944;5.304;2024-02-28T11:42:57;7.80;99.90
19252;DHT22;9760;50.944;5.304;2024-02-28T11:45:24;7.70;99.90
19252;DHT22;9760;50.944;5.304;2024-02-28T11:47:50;7.60;99.90
19252;DHT22;9760;50.944;5.304;2024-02-28T11:50:16;7.70;99.90
19252;DHT22;9760;50.944;5.304;2024-02-28T11:52:44;7.80;99.90
19252;DHT22;9760;50.944;5.304;2024-02-28T11:55:09;8.00;99.90
19252;DHT22;9760;50.944;5.304;2024-02-28T11:57:35;7.90;99.90
19252;DHT22;9760;50.944;5.304;2024-02-28T12:00:07;7.90;99.90
19252;DHT22;9760;50.944;5.304;2024-02-28T12:02:34;7.90;99.90
19252;DHT22;9760;50.944;5.304;2024-02-28T12:05:04;8.00;99.90
19252;DHT22;9760;50.944;5.304;2024-02-28T12:07:31;8.20;99.90
19252;DHT22;9760;50.944;5.304;2024-02-28T12:09:57;8.20;99.90
19252;DHT22;9760;50.944;5.304;2024-02-28T12:12:23;8.20;99.90
19252;DHT22;9760;50.944;5.304;2024-02-28T12:14:50;8.20;99.90
19252;DHT22;9760;50.944;5.304;2024-02-28T12:17:15;8.30;99.90
19252;DHT22;9760;50.944;5.304;2024-02-28T12:19:41;8.30;99.90
19252;DHT22;9760;50.944;5.304;2024-02-28T12:22:08;8.30;99.90
19252;DHT22;9760;50.944;5.304;2024-02-28T12:24:34;8.50;99.90
19252;DHT22;9760;50.944;5.304;2024-02-28T12:26:59;8.60;99.90
19252;DHT22;9760;50.944;5.304;2024-02-28T12:29:25;8.60;99.90
19252;DHT22;9760;50.944;5.304;2024-02-28T12:31:50;8.70;99.90
19252;DHT22;9760;50.944;5.304;2024-02-28T12:34:16;8.70;99.90
19252;DHT22;9760;50.944;5.304;2024-02-28T12:36:42;8.80;99.90
19252;DHT22;9760;50.944;5.304;2024-02-28T12:39:08;8.80;99.90
19252;DHT22;9760;50.944;5.304;2024-02-28T12:41:39;8.80;99.90
19252;DHT22;9760;50.944;5.304;2024-02-28T12:44:08;8.90;99.90
19252;DHT22;9760;50.944;5.304;2024-02-28T12:46:36;8.80;99.90
19252;DHT22;9760;50.944;5.304;2024-02-28T12:49:02;9.00;99.90
19252;DHT22;9760;50.944;5.304;2024-02-28T12:51:40;9.10;99.90
19252;DHT22;9760;50.944;5.304;2024-02-28T12:54:09;9.10;99.90
19252;DHT22;9760;50.944;5.304;2024-02-28T12:56:39;9.10;99.90
19252;DHT22;9760;50.944;5.304;2024-02-28T12:59:06;9.40;99.90
19252;DHT22;9760;50.944;5.304;2024-02-28T13:01:34;9.50;99.90
19252;DHT22;9760;50.944;5.304;2024-02-28T13:04:00;9.50;99.90
19252;DHT22;9760;50.944;5.304;2024-02-28T13:06:26;9.40;99.90
19252;DHT22;9760;50.944;5.304;2024-02-28T13:08:52;9.30;99.90
19252;DHT22;9760;50.944;5.304;2024-02-28T13:11:19;9.30;99.90
19252;DHT22;9760;50.944;5.304;2024-02-28T13:13:49;9.40;99.90
19252;DHT22;9760;50.944;5.304;2024-02-28T13:16:18;9.50;99.90
19252;DHT22;9760;50.944;5.304;2024-02-28T13:18:45;9.50;99.90
19252;DHT22;9760;50.944;5.304;2024-02-28T13:21:11;9.40;99.90
19252;DHT22;9760;50.944;5.304;2024-02-28T13:23:37;9.50;99.90
19252;DHT22;9760;50.944;5.304;2024-02-28T13:26:04;9.50;99.90
19252;DHT22;9760;50.944;5.304;2024-02-28T13:28:30;9.50;99.90
19252;DHT22;9760;50.944;5.304;2024-02-28T13:30:59;9.50;99.90
19252;DHT22;9760;50.944;5.304;2024-02-28T13:33:25;9.50;99.90
19252;DHT22;9760;50.944;5.304;2024-02-28T13:35:51;9.60;99.90
19252;DHT22;9760;50.944;5.304;2024-02-28T13:38:18;9.50;99.90
19252;DHT22;9760;50.944;5.304;2024-02-28T13:40:48;9.50;99.90
19252;DHT22;9760;50.944;5.304;2024-02-28T13:43:14;9.40;99.90
19252;DHT22;9760;50.944;5.304;2024-02-28T13:45:40;9.30;99.90
19252;DHT22;9760;50.944;5.304;2024-02-28T13:48:16;9.30;99.90
19252;DHT22;9760;50.944;5.304;2024-02-28T13:50:43;9.40;99.90
19252;DHT22;9760;50.944;5.304;2024-02-28T13:53:09;9.50;99.90
19252;DHT22;9760;50.944;5.304;2024-02-28T13:55:35;9.50;99.90
19252;DHT22;9760;50.944;5.304;2024-02-28T13:58:00;9.50;99.90
19252;DHT22;9760;50.944;5.304;2024-02-28T14:00:26;9.40;99.90
19252;DHT22;9760;50.944;5.304;2024-02-28T14:02:52;9.50;99.90
19252;DHT22;9760;50.944;5.304;2024-02-28T14:05:17;9.50;99.90
19252;DHT22;9760;50.944;5.304;2024-02-28T14:07:43;9.50;99.90
19252;DHT22;9760;50.944;5.304;2024-02-28T14:10:09;9.50;99.90
19252;DHT22;9760;50.944;5.304;2024-02-28T14:12:36;9.40;99.90
19252;DHT22;9760;50.944;5.304;2024-02-28T14:15:04;9.50;99.90
19252;DHT22;9760;50.944;5.304;2024-02-28T14:17:31;9.50;99.90
19252;DHT22;9760;50.944;5.304;2024-02-28T14:19:57;9.40;99.90
19252;DHT22;9760;50.944;5.304;2024-02-28T14:22:22;9.40;99.90
19252;DHT22;9760;50.944;5.304;2024-02-28T14:24:48;9.30;99.90
19252;DHT22;9760;50.944;5.304;2024-02-28T14:27:14;9.30;99.90
19252;DHT22;9760;50.944;5.304;2024-02-28T14:29:40;9.30;99.90
19252;DHT22;9760;50.944;5.304;2024-02-28T14:32:06;9.30;99.90
19252;DHT22;9760;50.944;5.304;2024-02-28T14:34:32;9.30;99.90
19252;DHT22;9760;50.944;5.304;2024-02-28T14:36:58;9.30;99.90
19252;DHT22;9760;50.944;5.304;2024-02-28T14:39:24;9.30;99.90
19252;DHT22;9760;50.944;5.304;2024-02-28T14:41:49;9.20;99.90
19252;DHT22;9760;50.944;5.304;2024-02-28T14:44:15;9.30;99.90
19252;DHT22;9760;50.944;5.304;2024-02-28T14:46:42;9.30;99.90
19252;DHT22;9760;50.944;5.304;2024-02-28T14:49:09;9.30;99.90
19252;DHT22;9760;50.944;5.304;2024-02-28T14:51:35;9.30;99.90
19252;DHT22;9760;50.944;5.304;2024-02-28T14:54:01;9.30;99.90
19252;DHT22;9760;50.944;5.304;2024-02-28T14:56:27;9.40;99.90
19252;DHT22;9760;50.944;5.304;2024-02-28T14:58:56;9.50;99.90
19252;DHT22;9760;50.944;5.304;2024-02-28T15:01:22;9.50;99.90
19252;DHT22;9760;50.944;5.304;2024-02-28T15:03:50;9.50;99.90
19252;DHT22;9760;50.944;5.304;2024-02-28T15:06:15;9.50;99.90
19252;DHT22;9760;50.944;5.304;2024-02-28T15:08:41;9.50;99.90
19252;DHT22;9760;50.944;5.304;2024-02-28T15:11:07;9.50;99.90
19252;DHT22;9760;50.944;5.304;2024-02-28T15:13:33;9.50;99.90
19252;DHT22;9760;50.944;5.304;2024-02-28T15:15:59;9.50;99.90
19252;DHT22;9760;50.944;5.304;2024-02-28T15:18:25;9.50;99.90
19252;DHT22;9760;50.944;5.304;2024-02-28T15:20:51;9.60;99.90
19252;DHT22;9760;50.944;5.304;2024-02-28T15:23:19;9.70;99.90
19252;DHT22;9760;50.944;5.304;2024-02-28T15:25:47;9.70;99.90
19252;DHT22;9760;50.944;5.304;2024-02-28T15:28:13;9.50;99.90
19252;DHT22;9760;50.944;5.304;2024-02-28T15:30:38;9.50;99.90
19252;DHT22;9760;50.944;5.304;2024-02-28T15:33:04;9.60;99.90
19252;DHT22;9760;50.944;5.304;2024-02-28T15:35:30;9.60;99.90
19252;DHT22;9760;50.944;5.304;2024-02-28T15:37:55;9.60;99.90
19252;DHT22;9760;50.944;5.304;2024-02-28T15:40:21;9.60;99.90
19252;DHT22;9760;50.944;5.304;2024-02-28T15:42:48;9.60;99.90
19252;DHT22;9760;50.944;5.304;2024-02-28T15:45:14;9.50;99.90
19252;DHT22;9760;50.944;5.304;2024-02-28T15:47:43;9.50;99.90
19252;DHT22;9760;50.944;5.304;2024-02-28T15:50:10;9.50;99.90
19252;DHT22;9760;50.944;5.304;2024-02-28T15:52:36;9.70;99.90
19252;DHT22;9760;50.944;5.304;2024-02-28T15:55:01;9.70;99.90
19252;DHT22;9760;50.944;5.304;2024-02-28T15:57:27;9.70;99.90